^^
Your Local Weather - Clay, NY Station Historical Data
Daily Summary for December 14, 2017 Units:  English    Metric   Both
« Previous Day
Next Day »
Daily Weekly Monthly Yearly Custom
  High: Low: Average:
Temperature: 18.8 °F 8.4 °F 14.7 °F
Dew Point: 12.9 °F 3.8 °F 9.8 °F
Humidity: 89% 71% 81%
Wind Speed: 6.0mph 0.0mph 1.9mph
Wind Gust: 11.0mph - -
Wind- - West
Pressure: 30.02 in 29.56 in -
Precipitation: 0.00 in    
Historical Graphs
 
 
Tabular Data for December 14, 2017
Time Temperature Dew Point Pressure Wind Wind Speed Wind Gust Humidity Rainfall Rate (Hourly) solar
00:08 15.4 °F 12.2 °F 29.57 in Calm   1.0 mph 87% 0.00 in 0 W/m2
00:20 15.2 °F 11.8 °F 29.57 in Calm     86% 0.00 in 0 W/m2
00:26 15.1 °F 11.7 °F 29.57 in Calm     86% 0.00 in 0 W/m2
00:30 15.0 °F 11.6 °F 29.57 in Calm     86% 0.00 in 0 W/m2
00:36 15.0 °F 11.8 °F 29.57 in Calm     87% 0.00 in 0 W/m2
00:42 14.9 °F 11.7 °F 29.56 in Calm   1.0 mph 87% 0.00 in 0 W/m2
00:48 14.9 °F 11.7 °F 29.56 in Calm   1.0 mph 87% 0.00 in 0 W/m2
00:54 14.8 °F 11.6 °F 29.56 in Calm     87% 0.00 in 0 W/m2
01:00 14.8 °F 11.6 °F 29.56 in Calm     87% 0.00 in 0 W/m2
01:06 14.8 °F 11.6 °F 29.56 in Calm     87% 0.00 in 0 W/m2
01:18 14.7 °F 11.8 °F 29.56 in Calm     88% 0.00 in 0 W/m2
01:36 14.7 °F 11.8 °F 29.56 in Calm     88% 0.00 in 0 W/m2
01:42 14.8 °F 11.9 °F 29.56 in Calm     88% 0.00 in 0 W/m2
01:48 14.7 °F 11.8 °F 29.56 in Calm     88% 0.00 in 0 W/m2
01:54 14.8 °F 11.9 °F 29.56 in Calm     88% 0.00 in 0 W/m2
02:00 14.7 °F 11.8 °F 29.56 in Calm     88% 0.00 in 0 W/m2
02:06 14.7 °F 11.8 °F 29.56 in Calm     88% 0.00 in 0 W/m2
02:12 14.8 °F 11.9 °F 29.56 in Calm     88% 0.00 in 0 W/m2
02:18 14.7 °F 11.8 °F 29.56 in Calm     88% 0.00 in 0 W/m2
02:24 14.7 °F 11.8 °F 29.56 in Calm     88% 0.00 in 0 W/m2
02:30 14.6 °F 11.9 °F 29.56 in Calm     89% 0.00 in 0 W/m2
02:36 14.7 °F 12.0 °F 29.56 in Calm     89% 0.00 in 0 W/m2
02:42 14.7 °F 11.8 °F 29.57 in Calm     88% 0.00 in 0 W/m2
02:48 14.7 °F 12.0 °F 29.57 in Calm     89% 0.00 in 0 W/m2
02:54 14.7 °F 12.0 °F 29.57 in Calm     89% 0.00 in 0 W/m2
03:06 14.7 °F 12.0 °F 29.57 in Calm   1.0 mph 89% 0.00 in 0 W/m2
03:08 14.7 °F 12.0 °F 29.57 in Calm   1.0 mph 89% 0.00 in 0 W/m2
03:20 14.7 °F 12.0 °F 29.57 in Calm     89% 0.00 in 0 W/m2
03:26 14.8 °F 12.1 °F 29.57 in Calm     89% 0.00 in 0 W/m2
03:32 14.8 °F 12.1 °F 29.57 in Calm   1.0 mph 89% 0.00 in 0 W/m2
03:38 14.8 °F 12.1 °F 29.57 in Calm   1.0 mph 89% 0.00 in 0 W/m2
03:44 14.8 °F 12.1 °F 29.57 in Calm     89% 0.00 in 0 W/m2
03:50 14.7 °F 12.0 °F 29.57 in Calm   1.0 mph 89% 0.00 in 0 W/m2
03:56 14.7 °F 12.0 °F 29.57 in Calm   1.0 mph 89% 0.00 in 0 W/m2
04:02 14.6 °F 11.9 °F 29.57 in WSW 1.0 mph 1.0 mph 89% 0.00 in 0 W/m2
04:08 14.4 °F 11.8 °F 29.57 in NNW 1.0 mph 2.0 mph 89% 0.00 in 0 W/m2
04:14 14.3 °F 11.7 °F 29.57 in NNW 1.0 mph 2.0 mph 89% 0.00 in 0 W/m2
04:20 14.1 °F 11.2 °F 29.57 in NNW 1.0 mph 1.0 mph 88% 0.00 in 0 W/m2
04:32 13.7 °F 10.8 °F 29.57 in NNW 1.0 mph 1.0 mph 88% 0.00 in 0 W/m2
04:38 13.4 °F 10.5 °F 29.58 in Calm   1.0 mph 88% 0.00 in 0 W/m2
04:50 13.0 °F 10.1 °F 29.59 in Calm     88% 0.00 in 0 W/m2
04:56 12.7 °F 9.8 °F 29.59 in Calm     88% 0.00 in 0 W/m2
05:02 12.3 °F 9.4 °F 29.60 in Calm     88% 0.00 in 0 W/m2
05:08 12.1 °F 9.2 °F 29.60 in Calm     88% 0.00 in 0 W/m2
05:14 12.1 °F 9.2 °F 29.60 in Calm     88% 0.00 in 0 W/m2
05:20 12.0 °F 9.1 °F 29.60 in Calm     88% 0.00 in 0 W/m2
05:26 12.0 °F 9.1 °F 29.61 in Calm     88% 0.00 in 0 W/m2
05:32 11.9 °F 9.0 °F 29.62 in Calm     88% 0.00 in 0 W/m2
05:38 11.9 °F 9.0 °F 29.61 in Calm     88% 0.00 in 0 W/m2
05:44 11.9 °F 9.0 °F 29.62 in Calm     88% 0.00 in 0 W/m2
05:50 12.0 °F 9.1 °F 29.62 in Calm     88% 0.00 in 0 W/m2
05:56 12.0 °F 9.1 °F 29.62 in Calm     88% 0.00 in 0 W/m2
06:02 12.0 °F 9.1 °F 29.63 in Calm     88% 0.00 in 0 W/m2
06:08 12.1 °F 9.2 °F 29.63 in Calm     88% 0.00 in 0 W/m2
06:14 12.2 °F 9.3 °F 29.64 in Calm     88% 0.00 in 0 W/m2
06:20 12.2 °F 9.3 °F 29.64 in Calm     88% 0.00 in 0 W/m2
06:26 12.2 °F 9.3 °F 29.65 in NNW 1.0 mph 1.0 mph 88% 0.00 in 0 W/m2
06:32 12.3 °F 9.4 °F 29.66 in North 1.0 mph 2.0 mph 88% 0.00 in 0 W/m2
06:38 12.2 °F 9.3 °F 29.66 in NNW 2.0 mph 3.0 mph 88% 0.00 in 0 W/m2
06:44 12.1 °F 9.2 °F 29.66 in NW 2.0 mph 5.0 mph 88% 0.00 in 0 W/m2
06:50 12.0 °F 8.9 °F 29.67 in NNW 2.0 mph 2.0 mph 87% 0.00 in 0 W/m2
06:56 11.9 °F 8.8 °F 29.67 in NNW 2.0 mph 2.0 mph 87% 0.00 in 0 W/m2
07:02 11.9 °F 8.8 °F 29.67 in NW 2.0 mph 2.0 mph 87% 0.00 in 0 W/m2
07:08 11.9 °F 8.8 °F 29.68 in NW 2.0 mph 3.0 mph 87% 0.00 in 0 W/m2
07:14 11.8 °F 8.7 °F 29.68 in NW 2.0 mph 2.0 mph 87% 0.00 in 0 W/m2
07:20 11.8 °F 8.7 °F 29.68 in NW 1.0 mph 3.0 mph 87% 0.00 in 0 W/m2
07:26 11.7 °F 8.6 °F 29.69 in NNW 2.0 mph 3.0 mph 87% 0.00 in 0 W/m2
07:32 11.5 °F 8.1 °F 29.69 in North 2.0 mph 3.0 mph 86% 0.00 in 0 W/m2
07:44 11.0 °F 7.6 °F 29.70 in North 2.0 mph 2.0 mph 86% 0.00 in 0 W/m2
07:50 10.7 °F 7.3 °F 29.71 in NW 2.0 mph 2.0 mph 86% 0.00 in 0 W/m2
07:56 10.4 °F 7.0 °F 29.71 in NNW 2.0 mph 4.0 mph 86% 0.00 in 0 W/m2
08:08 9.5 °F 5.9 °F 29.73 in NW 1.0 mph 3.0 mph 85% 0.00 in 0 W/m2
08:20 8.6 °F 5.0 °F 29.73 in NNW 2.0 mph 2.0 mph 85% 0.00 in 5 W/m2
08:26 8.4 °F 5.1 °F 29.74 in NNW 1.0 mph 2.0 mph 86% 0.00 in 7 W/m2
08:32 8.4 °F 4.8 °F 29.75 in NNW 1.0 mph 1.0 mph 85% 0.00 in 16 W/m2
08:38 8.7 °F 5.4 °F 29.76 in Calm   2.0 mph 86% 0.00 in 11 W/m2
08:44 9.1 °F 5.8 °F 29.76 in NNW 1.0 mph 2.0 mph 86% 0.00 in 18 W/m2
08:50 9.5 °F 6.2 °F 29.76 in NNW 1.0 mph 1.0 mph 86% 0.00 in 18 W/m2
08:56 9.8 °F 6.5 °F 29.77 in NNW 2.0 mph 2.0 mph 86% 0.00 in 19 W/m2
09:02 11.0 °F 7.6 °F 29.77 in NNW 1.0 mph 2.0 mph 86% 0.00 in 23 W/m2
09:08 12.1 °F 7.9 °F 29.78 in Calm   2.0 mph 83% 0.00 in 25 W/m2
09:14 12.5 °F 7.8 °F 29.78 in Calm   1.0 mph 81% 0.00 in 26 W/m2
09:20 11.7 °F 6.7 °F 29.79 in NW 2.0 mph 2.0 mph 80% 0.00 in 23 W/m2
09:32 10.2 °F 5.5 °F 29.81 in NNW 2.0 mph 3.0 mph 81% 0.00 in 18 W/m2
09:42 10.2 °F 5.3 °F 29.81 in NNW 3.0 mph 3.0 mph 80% 0.00 in 35 W/m2
09:48 10.7 °F 5.2 °F 29.82 in North 3.0 mph 5.0 mph 78% 0.00 in 33 W/m2
09:54 11.1 °F 5.3 °F 29.82 in North 3.0 mph 3.0 mph 77% 0.00 in 33 W/m2
10:00 11.0 °F 6.3 °F 29.83 in NNW 3.0 mph 3.0 mph 81% 0.00 in 35 W/m2
10:06 10.4 °F 5.5 °F 29.83 in NW 3.0 mph 4.0 mph 80% 0.00 in 37 W/m2
10:12 10.7 °F 4.6 °F 29.84 in NNW 3.0 mph 3.0 mph 76% 0.00 in 37 W/m2
10:18 10.4 °F 4.0 °F 29.84 in North 2.0 mph 5.0 mph 75% 0.00 in 39 W/m2
10:24 10.5 °F 3.8 °F 29.84 in North 2.0 mph 2.0 mph 74% 0.00 in 37 W/m2
10:30 11.1 °F 4.7 °F 29.84 in North 1.0 mph 2.0 mph 75% 0.00 in 37 W/m2
10:36 11.1 °F 4.4 °F 29.84 in North 2.0 mph 3.0 mph 74% 0.00 in 40 W/m2
10:42 11.8 °F 4.8 °F 29.84 in North 1.0 mph 1.0 mph 73% 0.00 in 40 W/m2
10:48 11.5 °F 4.8 °F 29.85 in North 1.0 mph 2.0 mph 74% 0.00 in 42 W/m2
10:54 11.2 °F 4.8 °F 29.85 in NNE 1.0 mph 3.0 mph 75% 0.00 in 46 W/m2
11:00 12.4 °F 5.7 °F 29.85 in NW 1.0 mph 3.0 mph 74% 0.00 in 42 W/m2
11:12 12.8 °F 6.4 °F 29.84 in NW 2.0 mph 3.0 mph 75% 0.00 in 47 W/m2
11:18 13.7 °F 7.2 °F 29.85 in NW 1.0 mph 3.0 mph 75% 0.00 in 44 W/m2
11:24 13.9 °F 7.1 °F 29.85 in Calm   3.0 mph 74% 0.00 in 28 W/m2
11:30 13.9 °F 7.4 °F 29.85 in SW 1.0 mph 4.0 mph 75% 0.00 in 70 W/m2
11:36 15.2 °F 9.3 °F 29.85 in WSW 1.0 mph 4.0 mph 77% 0.00 in 69 W/m2
11:42 14.5 °F 8.6 °F 29.85 in WNW 1.0 mph 1.0 mph 77% 0.00 in 37 W/m2
11:48 14.1 °F 8.8 °F 29.85 in WNW 2.0 mph 2.0 mph 79% 0.00 in 32 W/m2
11:54 14.7 °F 9.1 °F 29.85 in NW 2.0 mph 3.0 mph 78% 0.00 in 30 W/m2
12:00 16.0 °F 9.5 °F 29.85 in NW 3.0 mph 5.0 mph 75% 0.00 in 67 W/m2
12:06 16.6 °F 9.8 °F 29.86 in West 4.0 mph 6.0 mph 74% 0.00 in 51 W/m2
12:12 16.9 °F 10.3 °F 29.86 in NNW 4.0 mph 6.0 mph 75% 0.00 in 67 W/m2
12:18 16.6 °F 10.1 °F 29.86 in NW 5.0 mph 7.0 mph 75% 0.00 in 70 W/m2
12:24 16.0 °F 9.8 °F 29.86 in WNW 4.0 mph 5.0 mph 76% 0.00 in 65 W/m2
12:28 16.1 °F 9.9 °F 29.86 in WNW 3.0 mph 7.0 mph 76% 0.00 in 42 W/m2
12:34 16.9 °F 10.9 °F 29.86 in NW 3.0 mph 3.0 mph 77% 0.00 in 60 W/m2
12:40 16.9 °F 10.6 °F 29.87 in West 3.0 mph 3.0 mph 76% 0.00 in 51 W/m2
12:46 16.6 °F 10.6 °F 29.87 in WNW 3.0 mph 6.0 mph 77% 0.00 in 47 W/m2
12:58 16.1 °F 11.3 °F 29.87 in NW 3.0 mph 5.0 mph 81% 0.00 in 40 W/m2
13:04 16.1 °F 11.8 °F 29.87 in WNW 3.0 mph 4.0 mph 83% 0.00 in 37 W/m2
13:10 16.1 °F 12.1 °F 29.87 in WNW 4.0 mph 6.0 mph 84% 0.00 in 63 W/m2
13:16 16.9 °F 12.6 °F 29.87 in WNW 4.0 mph 6.0 mph 83% 0.00 in 62 W/m2
13:22 17.5 °F 12.9 °F 29.87 in WNW 3.0 mph 4.0 mph 82% 0.00 in 51 W/m2
13:28 17.4 °F 12.6 °F 29.87 in West 3.0 mph 5.0 mph 81% 0.00 in 42 W/m2
13:34 17.2 °F 12.1 °F 29.88 in NW 4.0 mph 5.0 mph 80% 0.00 in 39 W/m2
13:46 16.4 °F 11.0 °F 29.88 in WNW 6.0 mph 8.0 mph 79% 0.00 in 32 W/m2
13:58 16.5 °F 10.8 °F 29.89 in NW 4.0 mph 6.0 mph 78% 0.00 in 37 W/m2
14:10 16.7 °F 10.4 °F 29.89 in West 5.0 mph 5.0 mph 76% 0.00 in 30 W/m2
14:16 16.6 °F 10.1 °F 29.89 in West 5.0 mph 6.0 mph 75% 0.00 in 32 W/m2
14:22 16.8 °F 10.2 °F 29.89 in WNW 4.0 mph 7.0 mph 75% 0.00 in 30 W/m2
14:28 16.6 °F 10.1 °F 29.90 in WNW 5.0 mph 7.0 mph 75% 0.00 in 23 W/m2
14:34 16.5 °F 10.0 °F 29.90 in West 5.0 mph 10.0 mph 75% 0.00 in 21 W/m2
14:40 16.3 °F 10.1 °F 29.90 in West 5.0 mph 5.0 mph 76% 0.00 in 23 W/m2
14:46 16.4 °F 10.2 °F 29.90 in WNW 4.0 mph 5.0 mph 76% 0.00 in 19 W/m2
14:52 16.3 °F 10.1 °F 29.90 in WNW 5.0 mph 5.0 mph 76% 0.00 in 16 W/m2
14:58 16.0 °F 9.8 °F 29.90 in WSW 5.0 mph 6.0 mph 76% 0.00 in 18 W/m2
15:04 16.1 °F 10.2 °F 29.90 in WSW 4.0 mph 7.0 mph 77% 0.00 in 14 W/m2
15:10 16.2 °F 10.3 °F 29.91 in West 3.0 mph 5.0 mph 77% 0.00 in 11 W/m2
15:16 16.0 °F 10.1 °F 29.91 in West 4.0 mph 11.0 mph 77% 0.00 in 11 W/m2
15:22 15.9 °F 10.5 °F 29.92 in WSW 5.0 mph 5.0 mph 79% 0.00 in 9 W/m2
15:28 15.7 °F 10.6 °F 29.92 in West 4.0 mph 5.0 mph 80% 0.00 in 9 W/m2
15:34 15.7 °F 10.9 °F 29.92 in West 3.0 mph 6.0 mph 81% 0.00 in 7 W/m2
15:40 15.9 °F 11.4 °F 29.92 in WNW 2.0 mph 5.0 mph 82% 0.00 in 7 W/m2
15:46 16.0 °F 11.2 °F 29.93 in WNW 3.0 mph 5.0 mph 81% 0.00 in 5 W/m2
15:52 16.1 °F 11.6 °F 29.93 in WSW 3.0 mph 6.0 mph 82% 0.00 in 5 W/m2
15:58 16.0 °F 11.5 °F 29.93 in West 4.0 mph 6.0 mph 82% 0.00 in 0 W/m2
16:04 15.9 °F 11.7 °F 29.93 in West 3.0 mph 3.0 mph 83% 0.00 in 0 W/m2
16:10 15.8 °F 11.6 °F 29.93 in WSW 3.0 mph 3.0 mph 83% 0.00 in 0 W/m2
16:16 15.7 °F 11.7 °F 29.94 in SW 3.0 mph 3.0 mph 84% 0.00 in 0 W/m2
16:22 15.6 °F 11.9 °F 29.94 in WSW 2.0 mph 5.0 mph 85% 0.00 in 0 W/m2
16:28 15.5 °F 11.8 °F 29.94 in WSW 2.0 mph 5.0 mph 85% 0.00 in 0 W/m2
16:34 15.4 °F 11.7 °F 29.94 in WSW 3.0 mph 3.0 mph 85% 0.00 in 0 W/m2
16:40 15.4 °F 11.7 °F 29.94 in West 2.0 mph 2.0 mph 85% 0.00 in 0 W/m2
16:46 15.4 °F 11.7 °F 29.95 in WSW 2.0 mph 3.0 mph 85% 0.00 in 0 W/m2
16:52 15.4 °F 11.7 °F 29.95 in WSW 2.0 mph 2.0 mph 85% 0.00 in 0 W/m2
16:58 15.4 °F 11.7 °F 29.95 in WSW 2.0 mph 3.0 mph 85% 0.00 in 0 W/m2
17:04 15.5 °F 11.8 °F 29.95 in WSW 1.0 mph 2.0 mph 85% 0.00 in 0 W/m2
17:22 15.6 °F 11.9 °F 29.95 in WSW 2.0 mph 2.0 mph 85% 0.00 in 0 W/m2
17:28 15.6 °F 11.6 °F 29.95 in SW 2.0 mph 2.0 mph 84% 0.00 in 0 W/m2
17:34 15.7 °F 11.5 °F 29.95 in West 3.0 mph 3.0 mph 83% 0.00 in 0 W/m2
17:40 15.9 °F 11.1 °F 29.96 in WNW 2.0 mph 3.0 mph 81% 0.00 in 0 W/m2
17:46 16.0 °F 10.6 °F 29.96 in WSW 3.0 mph 3.0 mph 79% 0.00 in 0 W/m2
17:52 16.0 °F 10.3 °F 29.96 in SSW 3.0 mph 3.0 mph 78% 0.00 in 0 W/m2
17:58 15.9 °F 10.0 °F 29.96 in West 4.0 mph 11.0 mph 77% 0.00 in 0 W/m2
18:04 15.9 °F 9.7 °F 29.96 in WSW 3.0 mph 6.0 mph 76% 0.00 in 0 W/m2
18:10 15.9 °F 9.4 °F 29.96 in West 2.0 mph 2.0 mph 75% 0.00 in 0 W/m2
18:16 15.9 °F 9.1 °F 29.96 in SSW 3.0 mph 8.0 mph 74% 0.00 in 0 W/m2
18:22 15.9 °F 8.8 °F 29.96 in WSW 4.0 mph 4.0 mph 73% 0.00 in 0 W/m2
18:28 15.8 °F 8.4 °F 29.96 in WSW 3.0 mph 4.0 mph 72% 0.00 in 0 W/m2
18:34 15.7 °F 8.6 °F 29.96 in SW 3.0 mph 8.0 mph 73% 0.00 in 0 W/m2
18:40 15.7 °F 8.6 °F 29.96 in WSW 3.0 mph 6.0 mph 73% 0.00 in 0 W/m2
18:52 16.0 °F 8.6 °F 29.97 in WSW 4.0 mph 7.0 mph 72% 0.00 in 0 W/m2
18:58 16.1 °F 8.7 °F 29.97 in WSW 5.0 mph 7.0 mph 72% 0.00 in 0 W/m2
19:04 16.1 °F 8.7 °F 29.98 in WSW 4.0 mph 6.0 mph 72% 0.00 in 0 W/m2
19:10 16.1 °F 8.7 °F 29.98 in WSW 4.0 mph 4.0 mph 72% 0.00 in 0 W/m2
19:16 16.1 °F 8.7 °F 29.98 in WSW 4.0 mph 5.0 mph 72% 0.00 in 0 W/m2
19:22 16.2 °F 8.8 °F 29.99 in WSW 3.0 mph 9.0 mph 72% 0.00 in 0 W/m2
19:28 16.2 °F 9.1 °F 29.99 in SW 3.0 mph 9.0 mph 73% 0.00 in 0 W/m2
19:34 16.2 °F 9.1 °F 29.99 in WSW 3.0 mph 3.0 mph 73% 0.00 in 0 W/m2
19:40 16.2 °F 9.1 °F 30.00 in WSW 3.0 mph 4.0 mph 73% 0.00 in 0 W/m2
19:46 16.3 °F 8.9 °F 30.00 in West 4.0 mph 6.0 mph 72% 0.00 in 0 W/m2
19:52 16.4 °F 8.9 °F 30.00 in West 3.0 mph 5.0 mph 72% 0.00 in 0 W/m2
19:58 16.4 °F 8.9 °F 30.00 in West 3.0 mph 9.0 mph 72% 0.00 in 0 W/m2
20:04 16.6 °F 8.8 °F 30.00 in SW 4.0 mph 4.0 mph 71% 0.00 in 0 W/m2
20:10 16.6 °F 8.8 °F 30.00 in WSW 3.0 mph 4.0 mph 71% 0.00 in 0 W/m2
20:16 16.7 °F 9.2 °F 30.01 in West 2.0 mph 5.0 mph 72% 0.00 in 0 W/m2
20:22 16.7 °F 9.2 °F 30.00 in West 3.0 mph 4.0 mph 72% 0.00 in 0 W/m2
20:28 16.7 °F 9.2 °F 30.01 in West 3.0 mph 4.0 mph 72% 0.00 in 0 W/m2
20:34 16.7 °F 9.2 °F 30.01 in West 2.0 mph 5.0 mph 72% 0.00 in 0 W/m2
20:40 16.7 °F 9.5 °F 30.01 in WSW 2.0 mph 2.0 mph 73% 0.00 in 0 W/m2
20:46 16.7 °F 9.5 °F 30.01 in WSW 2.0 mph 4.0 mph 73% 0.00 in 0 W/m2
20:54 16.7 °F 9.5 °F 30.01 in West 3.0 mph 3.0 mph 73% 0.00 in 0 W/m2
21:00 16.8 °F 9.6 °F 30.01 in WSW 3.0 mph 5.0 mph 73% 0.00 in 0 W/m2
21:06 16.8 °F 9.6 °F 30.01 in West 2.0 mph 5.0 mph 73% 0.00 in 0 W/m2
21:12 16.8 °F 9.6 °F 30.01 in WSW 1.0 mph 3.0 mph 73% 0.00 in 0 W/m2
21:18 16.9 °F 9.7 °F 30.02 in West 2.0 mph 3.0 mph 73% 0.00 in 0 W/m2
21:24 17.0 °F 9.8 °F 30.01 in West 2.0 mph 2.0 mph 73% 0.00 in 0 W/m2
21:30 17.1 °F 9.9 °F 30.02 in WSW 2.0 mph 2.0 mph 73% 0.00 in 0 W/m2
21:36 17.0 °F 9.8 °F 30.02 in SW 2.0 mph 2.0 mph 73% 0.00 in 0 W/m2
21:42 17.0 °F 9.8 °F 30.02 in SW 1.0 mph 1.0 mph 73% 0.00 in 0 W/m2
21:48 16.8 °F 9.6 °F 30.02 in SW 1.0 mph 3.0 mph 73% 0.00 in 0 W/m2
21:54 16.8 °F 9.9 °F 30.01 in WSW 1.0 mph 3.0 mph 74% 0.00 in 0 W/m2
22:00 16.9 °F 10.0 °F 30.02 in WSW 1.0 mph 2.0 mph 74% 0.00 in 0 W/m2
22:06 16.9 °F 10.0 °F 30.02 in WSW 1.0 mph 4.0 mph 74% 0.00 in 0 W/m2
22:14 17.0 °F 10.4 °F 30.02 in WSW 2.0 mph 2.0 mph 75% 0.00 in 0 W/m2
22:20 17.2 °F 10.6 °F 30.02 in SW 2.0 mph 5.0 mph 75% 0.00 in 0 W/m2
22:26 17.3 °F 10.7 °F 30.02 in WSW 2.0 mph 5.0 mph 75% 0.00 in 0 W/m2
22:32 17.4 °F 11.1 °F 30.02 in WSW 2.0 mph 4.0 mph 76% 0.00 in 0 W/m2
22:38 17.6 °F 11.3 °F 30.02 in SW 2.0 mph 4.0 mph 76% 0.00 in 0 W/m2
22:44 17.7 °F 11.7 °F 30.02 in SW 2.0 mph 2.0 mph 77% 0.00 in 0 W/m2
22:50 17.8 °F 11.8 °F 30.01 in SSW 3.0 mph 6.0 mph 77% 0.00 in 0 W/m2
22:56 17.8 °F 11.8 °F 30.02 in SW 3.0 mph 6.0 mph 77% 0.00 in 0 W/m2
23:02 17.9 °F 11.9 °F 30.02 in SW 3.0 mph 4.0 mph 77% 0.00 in 0 W/m2
23:08 18.1 °F 12.1 °F 30.02 in WSW 3.0 mph 7.0 mph 77% 0.00 in 0 W/m2
23:14 18.2 °F 11.9 °F 30.02 in WSW 4.0 mph 4.0 mph 76% 0.00 in 0 W/m2
23:20 18.4 °F 12.1 °F 30.02 in WSW 3.0 mph 3.0 mph 76% 0.00 in 0 W/m2
23:26 18.4 °F 12.1 °F 30.02 in SW 3.0 mph 3.0 mph 76% 0.00 in 0 W/m2
23:32 18.5 °F 12.2 °F 30.02 in SW 2.0 mph 5.0 mph 76% 0.00 in 0 W/m2
23:38 18.6 °F 12.3 °F 30.02 in West 3.0 mph 6.0 mph 76% 0.00 in 0 W/m2
23:44 18.6 °F 12.3 °F 30.02 in WSW 3.0 mph 3.0 mph 76% 0.00 in 0 W/m2
23:50 18.7 °F 12.4 °F 30.02 in WSW 2.0 mph 2.0 mph 76% 0.00 in 0 W/m2
23:56 18.8 °F 12.5 °F 30.02 in WSW 3.0 mph 5.0 mph 76% 0.00 in 0 W/m2
Country Meadow, Clay, NY, USA
Compliments of Weather Underground - 2 mb